createdAt,value
2023-04-28T00:00:14.089Z,101115.51
2023-04-28T00:03:02.503Z,101115.06
2023-04-28T00:05:31.110Z,101115.41
2023-04-28T00:07:59.480Z,101116.53
2023-04-28T00:10:28.154Z,101116.96
2023-04-28T00:12:56.856Z,101110.27
2023-04-28T00:15:25.574Z,101112.13
2023-04-28T00:17:54.703Z,101110.98
2023-04-28T00:20:23.310Z,101109.02
2023-04-28T00:22:51.637Z,101109.61
2023-04-28T00:25:20.104Z,101108.46
2023-04-28T00:27:48.482Z,101109.85
2023-04-28T00:30:18.256Z,101111.27
2023-04-28T00:32:47.046Z,101115.65
2023-04-28T00:35:15.800Z,101115.09
2023-04-28T00:37:44.595Z,101112.69
2023-04-28T00:40:14.328Z,101115.44
2023-04-28T00:42:42.755Z,101123.02
2023-04-28T00:45:11.858Z,101121.90
2023-04-28T00:47:40.990Z,101125.85
2023-04-28T00:50:11.221Z,101125.96
2023-04-28T00:52:41.103Z,101122.58
2023-04-28T00:55:10.029Z,101123.23
2023-04-28T00:57:38.307Z,101123.56
2023-04-28T01:00:09.752Z,101120.70
2023-04-28T01:02:38.936Z,101123.52
2023-04-28T01:05:09.369Z,101122.45
2023-04-28T01:07:37.849Z,101123.52
2023-04-28T01:10:08.764Z,101124.63
2023-04-28T01:12:37.179Z,101122.99
2023-04-28T01:15:07.821Z,101124.92
2023-04-28T01:17:36.349Z,101127.52
2023-04-28T01:20:07.560Z,101126.56
2023-04-28T01:22:36.137Z,101128.73
2023-04-28T01:25:05.328Z,101131.42
2023-04-28T01:27:33.851Z,101132.41
2023-04-28T01:30:02.913Z,101132.64
2023-04-28T01:32:31.825Z,101130.33
2023-04-28T01:35:00.207Z,101134.10
2023-04-28T01:37:28.727Z,101133.11
2023-04-28T01:39:57.328Z,101137.08
2023-04-28T01:42:25.770Z,101135.92
2023-04-28T01:44:54.979Z,101136.71
2023-04-28T01:47:23.521Z,101139.95
2023-04-28T01:49:52.484Z,101143.70
2023-04-28T01:52:22.594Z,101146.88
2023-04-28T01:54:50.945Z,101147.17
2023-04-28T01:57:21.825Z,101145.88
2023-04-28T01:59:50.904Z,101149.15
2023-04-28T02:02:19.311Z,101149.48
2023-04-28T02:04:47.801Z,101143.89
2023-04-28T02:07:16.251Z,101142.31
2023-04-28T02:09:45.811Z,101146.28
2023-04-28T02:12:14.365Z,101143.48
2023-04-28T02:14:45.492Z,101143.30
2023-04-28T02:17:13.847Z,101144.02
2023-04-28T02:19:42.584Z,101145.27
2023-04-28T02:22:11.456Z,101145.40
2023-04-28T02:24:40.024Z,101143.60
2023-04-28T02:27:09.040Z,101146.47
2023-04-28T02:29:37.809Z,101143.53
2023-04-28T02:32:06.533Z,101144.70
2023-04-28T02:34:34.935Z,101143.37
2023-04-28T02:37:03.702Z,101146.09
2023-04-28T02:39:32.783Z,101144.94
2023-04-28T02:42:04.875Z,101144.54
2023-04-28T02:44:39.583Z,101143.80
2023-04-28T02:47:08.105Z,101143.34
2023-04-28T02:49:36.839Z,101143.67
2023-04-28T02:52:05.636Z,101145.20
2023-04-28T02:54:36.092Z,101145.12
2023-04-28T02:57:04.995Z,101148.04
2023-04-28T02:59:33.858Z,101157.66
2023-04-28T03:02:03.185Z,101158.56
2023-04-28T03:04:34.239Z,101153.13
2023-04-28T03:07:02.844Z,101158.21
2023-04-28T03:09:33.512Z,101157.37
2023-04-28T03:12:02.917Z,101156.19
2023-04-28T03:14:31.345Z,101154.70
2023-04-28T03:17:00.866Z,101156.15
2023-04-28T03:19:29.679Z,101156.91
2023-04-28T03:22:02.440Z,101157.61
2023-04-28T03:24:31.847Z,101156.88
2023-04-28T03:27:01.878Z,101158.02
2023-04-28T03:29:32.453Z,101157.22
2023-04-28T03:32:03.640Z,101161.69
2023-04-28T03:34:32.829Z,101163.20
2023-04-28T03:37:01.454Z,101165.52
2023-04-28T03:39:30.426Z,101167.17
2023-04-28T03:41:59.266Z,101169.59
2023-04-28T03:44:27.858Z,101167.59
2023-04-28T03:46:56.666Z,101168.52
2023-04-28T03:49:25.589Z,101166.02
2023-04-28T03:51:55.482Z,101163.19
2023-04-28T03:54:24.034Z,101164.24
2023-04-28T03:56:52.740Z,101160.34
2023-04-28T03:59:21.229Z,101162.88
2023-04-28T04:01:49.726Z,101167.70
2023-04-28T04:04:18.749Z,101166.86
2023-04-28T04:06:48.026Z,101173.03
2023-04-28T04:09:16.483Z,101173.70
2023-04-28T04:11:45.115Z,101175.30
2023-04-28T04:14:13.778Z,101179.64
2023-04-28T04:16:43.864Z,101181.73
2023-04-28T04:19:12.465Z,101179.82
2023-04-28T04:21:41.507Z,101179.17
2023-04-28T04:24:10.227Z,101180.50
2023-04-28T04:26:39.488Z,101184.09
2023-04-28T04:29:07.963Z,101185.04
2023-04-28T04:31:37.190Z,101187.02
2023-04-28T04:34:06.165Z,101187.08
2023-04-28T04:36:34.608Z,101187.05
2023-04-28T04:39:03.208Z,101187.20
2023-04-28T04:41:31.681Z,101184.21
2023-04-28T04:44:00.136Z,101185.20
2023-04-28T04:46:28.676Z,101187.52
2023-04-28T04:48:57.288Z,101190.26
2023-04-28T04:51:25.795Z,101188.59
2023-04-28T04:53:54.914Z,101189.59
2023-04-28T04:56:23.590Z,101192.06
2023-04-28T04:58:52.823Z,101188.11
2023-04-28T05:01:21.680Z,101188.34
2023-04-28T05:03:50.472Z,101186.13
2023-04-28T05:06:19.174Z,101190.52
2023-04-28T05:08:50.022Z,101190.35
2023-04-28T05:11:19.057Z,101191.35
2023-04-28T05:13:47.443Z,101189.46
2023-04-28T05:16:16.758Z,101189.44
2023-04-28T05:18:48.093Z,101191.52
2023-04-28T05:21:16.507Z,101196.82
2023-04-28T05:23:45.456Z,101198.51
2023-04-28T05:26:14.293Z,101200.03
2023-04-28T05:28:42.937Z,101200.58
2023-04-28T05:31:12.069Z,101205.74
2023-04-28T05:33:40.525Z,101205.88
2023-04-28T05:36:09.345Z,101204.71
2023-04-28T05:38:37.824Z,101203.20
2023-04-28T05:41:06.455Z,101201.54
2023-04-28T05:43:35.455Z,101199.10
2023-04-28T05:46:06.356Z,101197.70
2023-04-28T05:48:40.857Z,101198.52
2023-04-28T05:51:12.344Z,101202.10
2023-04-28T05:53:41.269Z,101202.62
2023-04-28T05:56:10.098Z,101204.27
2023-04-28T05:58:38.596Z,101209.27
2023-04-28T06:01:06.999Z,101207.98
2023-04-28T06:03:35.925Z,101202.23
2023-04-28T06:06:07.787Z,101200.69
2023-04-28T06:08:38.870Z,101202.19
2023-04-28T06:11:07.769Z,101203.04
2023-04-28T06:13:36.411Z,101204.16
2023-04-28T06:16:06.083Z,101202.75
2023-04-28T06:18:34.950Z,101201.30
2023-04-28T06:21:03.745Z,101204.60
2023-04-28T06:23:32.310Z,101199.96
2023-04-28T06:26:00.897Z,101202.70
2023-04-28T06:28:30.624Z,101202.99
2023-04-28T06:31:00.617Z,101207.42
2023-04-28T06:33:29.502Z,101208.15
2023-04-28T06:35:58.081Z,101213.27
2023-04-28T06:38:26.771Z,101207.79
2023-04-28T06:40:55.944Z,101207.02
2023-04-28T06:43:24.417Z,101208.90
2023-04-28T06:45:52.886Z,101207.85
2023-04-28T06:48:21.318Z,101213.29
2023-04-28T06:50:49.857Z,101214.04
2023-04-28T06:53:18.353Z,101212.17
2023-04-28T06:55:46.847Z,101209.36
2023-04-28T06:58:15.821Z,101209.38
2023-04-28T07:00:44.408Z,101211.36
2023-04-28T07:03:13.569Z,101209.05
2023-04-28T07:05:42.401Z,101209.94
2023-04-28T07:08:10.992Z,101214.96
2023-04-28T07:10:39.823Z,101210.21
2023-04-28T07:13:08.587Z,101210.08
2023-04-28T07:15:39.508Z,101205.01
2023-04-28T07:18:08.052Z,101207.25
2023-04-28T07:20:36.537Z,101204.46
2023-04-28T07:23:05.277Z,101202.71
2023-04-28T07:25:34.659Z,101202.39
2023-04-28T07:28:06.796Z,101198.14
2023-04-28T07:30:35.815Z,101198.54
2023-04-28T07:33:05.015Z,101191.92
2023-04-28T07:35:35.254Z,101191.27
2023-04-28T07:38:06.293Z,101188.63
2023-04-28T07:40:36.526Z,101189.44
2023-04-28T07:43:05.600Z,101186.24
2023-04-28T07:45:36.778Z,101177.24
2023-04-28T07:48:07.147Z,101178.21
2023-04-28T07:50:35.977Z,101176.56
2023-04-28T07:53:04.603Z,101178.30
2023-04-28T07:55:35.237Z,101178.81
2023-04-28T07:58:03.983Z,101176.77
2023-04-28T08:00:32.896Z,101175.74
2023-04-28T08:03:01.909Z,101178.34
2023-04-28T08:05:33.287Z,101173.52
2023-04-28T08:08:05.746Z,101171.61
2023-04-28T08:10:34.736Z,101173.62
2023-04-28T08:13:03.580Z,101166.36
2023-04-28T08:15:32.199Z,101160.27
2023-04-28T08:18:01.139Z,101160.17
2023-04-28T08:20:32.011Z,101157.48
2023-04-28T08:23:01.020Z,101158.13
2023-04-28T08:25:29.518Z,101159.61
2023-04-28T08:27:59.471Z,101158.37
2023-04-28T08:30:28.758Z,101159.52
2023-04-28T08:32:57.570Z,101159.98
2023-04-28T08:35:27.229Z,101156.14
2023-04-28T08:37:55.817Z,101153.97
2023-04-28T08:40:26.391Z,101151.37
2023-04-28T08:42:56.682Z,101146.56
2023-04-28T08:45:26.715Z,101145.67
2023-04-28T08:48:00.114Z,101146.30
2023-04-28T08:50:29.978Z,101145.01
2023-04-28T08:52:58.569Z,101142.75
2023-04-28T08:55:27.669Z,101141.42
2023-04-28T08:57:57.739Z,101144.34
2023-04-28T09:00:27.492Z,101143.94
2023-04-28T09:02:56.500Z,101144.54
2023-04-28T09:05:25.787Z,101142.81
2023-04-28T09:07:55.790Z,101137.01
2023-04-28T09:10:25.915Z,101135.11
2023-04-28T09:12:56.204Z,101133.92
2023-04-28T09:15:33.275Z,101133.85
2023-04-28T09:18:03.421Z,101131.46
2023-04-28T09:20:33.379Z,101125.46
2023-04-28T09:23:17.270Z,101127.27
2023-04-28T09:26:00.447Z,101126.49
2023-04-28T09:28:32.202Z,101127.03
2023-04-28T09:31:02.554Z,101122.39
2023-04-28T09:33:31.314Z,101124.63
2023-04-28T09:35:59.941Z,101121.13
2023-04-28T09:38:28.622Z,101122.23
2023-04-28T09:40:59.587Z,101116.82
2023-04-28T09:43:29.905Z,101111.32
2023-04-28T09:45:59.540Z,101113.91
2023-04-28T09:48:29.489Z,101109.27
2023-04-28T09:50:58.738Z,101105.11
2023-04-28T09:53:27.631Z,101098.73
2023-04-28T09:55:57.693Z,101098.08
2023-04-28T09:58:28.327Z,101095.52
2023-04-28T10:00:58.337Z,101095.06
2023-04-28T10:03:29.777Z,101092.34
2023-04-28T10:05:59.562Z,101090.73
2023-04-28T10:08:29.249Z,101084.89
2023-04-28T10:11:03.417Z,101080.45
2023-04-28T10:13:39.402Z,101079.47
2023-04-28T10:16:09.258Z,101074.92
2023-04-28T10:18:39.968Z,101068.75
2023-04-28T10:21:11.243Z,101069.93
2023-04-28T10:24:03.612Z,101062.80
2023-04-28T10:27:03.242Z,101061.57
2023-04-28T10:29:33.138Z,101056.52
2023-04-28T10:32:18.905Z,101051.11
2023-04-28T10:34:49.150Z,101049.63
2023-04-28T10:37:18.671Z,101046.31
2023-04-28T10:40:29.401Z,101043.05
2023-04-28T10:42:58.840Z,101042.04
2023-04-28T10:46:04.534Z,101039.73
2023-04-28T10:49:06.325Z,101036.63
2023-04-28T10:51:37.080Z,101033.87
2023-04-28T10:54:14.052Z,101028.54
2023-04-28T10:56:43.973Z,101026.08
2023-04-28T10:59:30.221Z,101019.11
2023-04-28T11:02:44.890Z,101018.46
2023-04-28T11:05:18.797Z,101017.86
2023-04-28T11:08:05.034Z,101018.93
2023-04-28T11:11:05.257Z,101017.80
2023-04-28T11:13:34.130Z,101021.42
2023-04-28T11:16:06.669Z,101014.88
2023-04-28T11:18:56.370Z,101012.20
2023-04-28T11:21:27.975Z,101010.60
2023-04-28T11:23:58.305Z,101005.74
2023-04-28T11:26:28.863Z,101004.69
2023-04-28T11:28:58.357Z,100997.02
2023-04-28T11:31:28.138Z,101001.59
2023-04-28T11:34:05.172Z,100997.83
2023-04-28T11:36:37.209Z,101000.02
2023-04-28T11:39:11.086Z,100990.67
2023-04-28T11:41:46.991Z,100985.07
2023-04-28T11:44:21.813Z,100988.52
2023-04-28T11:46:55.540Z,100989.87
2023-04-28T11:49:25.173Z,100987.45
2023-04-28T11:51:54.325Z,100984.69
2023-04-28T11:54:25.227Z,100991.44
2023-04-28T11:57:04.436Z,100990.90
2023-04-28T11:59:34.522Z,100992.32
2023-04-28T12:02:06.848Z,100991.55
2023-04-28T12:04:44.705Z,100987.03
2023-04-28T12:07:21.236Z,100985.80
2023-04-28T12:10:12.142Z,100979.99
2023-04-28T12:12:52.044Z,100972.08
2023-04-28T12:15:24.981Z,100975.72
2023-04-28T12:17:54.123Z,100978.59
2023-04-28T12:20:39.466Z,100969.87
2023-04-28T12:23:09.702Z,100968.92
2023-04-28T12:25:49.667Z,100961.95
2023-04-28T12:28:18.310Z,100962.33
2023-04-28T12:30:49.084Z,100955.96
2023-04-28T12:33:26.477Z,100956.31
2023-04-28T12:35:56.139Z,100953.91
2023-04-28T12:38:28.309Z,100946.02
2023-04-28T12:40:58.322Z,100937.33
2023-04-28T12:43:29.689Z,100936.57
2023-04-28T12:46:00.161Z,100937.79
2023-04-28T12:48:29.351Z,100938.18
2023-04-28T12:50:58.523Z,100932.73
2023-04-28T12:56:26.844Z,100921.70
2023-04-28T12:59:06.445Z,100921.64
2023-04-28T13:01:37.159Z,100928.16
2023-04-28T13:04:30.565Z,100926.35
2023-04-28T13:07:01.935Z,100921.92
2023-04-28T13:09:38.456Z,100919.12
2023-04-28T13:12:09.734Z,100922.95
2023-04-28T13:14:38.465Z,100920.77
2023-04-28T13:17:08.679Z,100918.17
2023-04-28T13:19:42.806Z,100912.08
2023-04-28T13:22:12.792Z,100912.45
2023-04-28T13:24:42.502Z,100908.88
2023-04-28T13:27:11.926Z,100913.77
2023-04-28T13:29:49.616Z,100905.71
2023-04-28T13:32:21.730Z,100907.16
2023-04-28T13:34:52.058Z,100906.84
2023-04-28T13:37:20.890Z,100901.20
2023-04-28T13:39:49.869Z,100901.02
2023-04-28T13:42:18.702Z,100898.52
2023-04-28T13:44:48.593Z,100898.75
2023-04-28T13:47:17.133Z,100900.89
2023-04-28T13:49:47.923Z,100899.64
2023-04-28T13:52:22.353Z,100891.55
2023-04-28T13:54:56.150Z,100890.79
2023-04-28T13:57:25.470Z,100888.85
2023-04-28T13:59:54.085Z,100888.43
2023-04-28T14:02:27.028Z,100886.55
2023-04-28T14:04:56.265Z,100886.73
2023-04-28T14:07:28.698Z,100884.97
2023-04-28T14:09:57.533Z,100880.14
2023-04-28T14:12:26.462Z,100872.39
2023-04-28T14:14:55.233Z,100873.29
2023-04-28T14:17:24.599Z,100867.45
2023-04-28T14:19:55.662Z,100862.55
2023-04-28T14:22:31.793Z,100858.26
2023-04-28T14:25:00.733Z,100852.45
2023-04-28T14:27:32.516Z,100851.98
2023-04-28T14:30:02.226Z,100854.17
2023-04-28T14:32:33.573Z,100853.61
2023-04-28T14:35:05.133Z,100849.41
2023-04-28T14:37:34.688Z,100848.69
2023-04-28T14:40:05.055Z,100847.27
2023-04-28T14:42:37.050Z,100844.66
2023-04-28T14:45:08.421Z,100842.31
2023-04-28T14:47:38.558Z,100843.13
2023-04-28T14:50:13.844Z,100837.11
2023-04-28T14:52:43.586Z,100840.27
2023-04-28T14:55:15.275Z,100835.39
2023-04-28T14:57:48.054Z,100833.55
2023-04-28T15:00:19.524Z,100830.55
2023-04-28T15:02:49.102Z,100825.86
2023-04-28T15:05:18.019Z,100820.27
2023-04-28T15:07:47.070Z,100816.65
2023-04-28T15:10:17.149Z,100814.67
2023-04-28T15:12:49.061Z,100811.55
2023-04-28T15:15:20.077Z,100806.50
2023-04-28T15:17:48.903Z,100802.63
2023-04-28T15:20:21.277Z,100807.70
2023-04-28T15:22:51.042Z,100808.88
2023-04-28T15:25:20.458Z,100806.15
2023-04-28T15:27:49.815Z,100804.98
2023-04-28T15:30:18.784Z,100800.38
2023-04-28T15:32:57.254Z,100799.83
2023-04-28T15:35:37.053Z,100798.15
2023-04-28T15:38:10.796Z,100796.33
2023-04-28T15:40:44.833Z,100797.28
2023-04-28T15:43:15.755Z,100795.03
2023-04-28T15:45:47.294Z,100790.67
2023-04-28T15:48:27.642Z,100787.05
2023-04-28T15:51:01.402Z,100787.08
2023-04-28T15:53:35.938Z,100782.78
2023-04-28T15:56:11.129Z,100785.39
2023-04-28T15:58:41.025Z,100787.75
2023-04-28T16:01:09.995Z,100785.73
2023-04-28T16:03:40.222Z,100790.27
2023-04-28T16:06:09.796Z,100786.71
2023-04-28T16:08:39.716Z,100791.38
2023-04-28T16:11:17.324Z,100786.72
2023-04-28T16:13:46.378Z,100779.19
2023-04-28T16:16:15.262Z,100782.65
2023-04-28T16:18:44.288Z,100777.46
2023-04-28T16:21:23.176Z,100776.46
2023-04-28T16:23:55.639Z,100772.47
2023-04-28T16:26:24.944Z,100772.92
2023-04-28T16:28:54.344Z,100769.80
2023-04-28T16:31:28.102Z,100769.25
2023-04-28T16:33:58.488Z,100768.83
2023-04-28T16:36:33.151Z,100771.46
2023-04-28T16:39:04.278Z,100767.32
2023-04-28T16:41:33.655Z,100768.23
2023-04-28T16:44:02.201Z,100763.32
2023-04-28T16:46:30.812Z,100759.73
2023-04-28T16:49:02.330Z,100761.02
2023-04-28T16:51:32.954Z,100755.61
2023-04-28T16:54:01.948Z,100760.41
2023-04-28T16:56:40.618Z,100762.56
2023-04-28T16:59:10.649Z,100764.75
2023-04-28T17:01:42.662Z,100760.33
2023-04-28T17:04:15.147Z,100757.21
2023-04-28T17:06:47.201Z,100755.36
2023-04-28T17:09:16.599Z,100754.80
2023-04-28T17:11:45.206Z,100752.75
2023-04-28T17:14:15.723Z,100753.57
2023-04-28T17:16:44.876Z,100751.81
2023-04-28T17:19:14.295Z,100751.65
2023-04-28T17:21:44.094Z,100749.91
2023-04-28T17:24:13.698Z,100748.48
2023-04-28T17:26:42.456Z,100749.25
2023-04-28T17:29:13.974Z,100749.25
2023-04-28T17:31:46.166Z,100746.19
2023-04-28T17:34:15.399Z,100747.58
2023-04-28T17:36:44.093Z,100745.51
2023-04-28T17:39:14.845Z,100742.80
2023-04-28T17:41:46.627Z,100744.64
2023-04-28T17:44:15.580Z,100740.28
2023-04-28T17:46:44.865Z,100744.46
2023-04-28T17:49:13.470Z,100745.78
2023-04-28T17:51:43.354Z,100744.73
2023-04-28T17:54:12.045Z,100743.17
2023-04-28T17:56:40.911Z,100743.03
2023-04-28T17:59:12.671Z,100741.31
2023-04-28T18:01:43.929Z,100743.96
2023-04-28T18:04:15.412Z,100740.95
2023-04-28T18:06:48.395Z,100742.10
2023-04-28T18:09:26.679Z,100742.09
2023-04-28T18:12:02.617Z,100743.48
2023-04-28T18:14:32.457Z,100741.81
2023-04-28T18:17:02.465Z,100744.66
2023-04-28T18:19:34.453Z,100743.52
2023-04-28T18:22:03.776Z,100742.13
2023-04-28T18:24:36.922Z,100739.64
2023-04-28T18:27:05.584Z,100739.38
2023-04-28T18:29:34.738Z,100742.98
2023-04-28T18:32:05.235Z,100737.45
2023-04-28T18:34:35.813Z,100743.47
2023-04-28T18:37:09.249Z,100747.52
2023-04-28T18:39:41.321Z,100748.84
2023-04-28T18:42:11.608Z,100747.20
2023-04-28T18:44:42.634Z,100743.83
2023-04-28T18:47:12.976Z,100747.52
2023-04-28T18:49:44.588Z,100745.23
2023-04-28T18:52:13.919Z,100740.02
2023-04-28T18:54:43.391Z,100745.23
2023-04-28T18:57:19.178Z,100742.65
2023-04-28T18:59:49.333Z,100743.12
2023-04-28T19:02:20.105Z,100742.86
2023-04-28T19:04:49.072Z,100744.33
2023-04-28T19:07:22.488Z,100742.66
2023-04-28T19:09:53.533Z,100740.26
2023-04-28T19:12:22.488Z,100736.59
2023-04-28T19:14:55.832Z,100739.52
2023-04-28T19:17:27.238Z,100740.46
2023-04-28T19:19:57.236Z,100737.73
2023-04-28T19:22:36.124Z,100742.09
2023-04-28T19:25:11.657Z,100741.45
2023-04-28T19:27:43.430Z,100740.62
2023-04-28T19:30:16.944Z,100741.66
2023-04-28T19:32:45.546Z,100738.04
2023-04-28T19:35:14.128Z,100733.49
2023-04-28T19:37:43.901Z,100734.03
2023-04-28T19:40:14.090Z,100734.21
2023-04-28T19:42:42.858Z,100740.99
2023-04-28T19:45:12.352Z,100735.70
2023-04-28T19:47:41.760Z,100733.96
2023-04-28T19:50:14.102Z,100730.30
2023-04-28T19:52:45.952Z,100734.58
2023-04-28T19:55:18.017Z,100734.39
2023-04-28T19:57:46.734Z,100732.88
2023-04-28T20:00:18.405Z,100731.05
2023-04-28T20:02:47.532Z,100734.41
2023-04-28T20:05:17.485Z,100737.90
2023-04-28T20:07:46.628Z,100743.09
2023-04-28T20:10:15.317Z,100742.48
2023-04-28T20:12:44.887Z,100741.36
2023-04-28T20:15:18.071Z,100743.63
2023-04-28T20:17:47.969Z,100741.33
2023-04-28T20:20:16.900Z,100738.99
2023-04-28T20:22:49.799Z,100738.88
2023-04-28T20:25:19.151Z,100739.73
2023-04-28T20:27:48.951Z,100739.09
2023-04-28T20:30:19.059Z,100742.34
2023-04-28T20:32:48.855Z,100742.06
2023-04-28T20:35:18.021Z,100741.66
2023-04-28T20:37:47.501Z,100744.55
2023-04-28T20:40:16.320Z,100744.27
2023-04-28T20:42:45.116Z,100744.52
2023-04-28T20:45:27.482Z,100743.37
2023-04-28T20:47:57.787Z,100741.61
2023-04-28T20:50:35.848Z,100741.73
2023-04-28T20:53:05.547Z,100736.60
2023-04-28T20:55:34.658Z,100740.14
2023-04-28T20:58:03.534Z,100737.86
2023-04-28T21:00:33.180Z,100733.40
2023-04-28T21:03:04.178Z,100732.71
2023-04-28T21:05:33.180Z,100732.44
2023-04-28T21:08:03.025Z,100729.17
2023-04-28T21:10:32.966Z,100733.79
2023-04-28T21:13:01.692Z,100735.98
2023-04-28T21:15:30.422Z,100730.01
2023-04-28T21:17:59.493Z,100730.62
2023-04-28T21:20:28.796Z,100734.09
2023-04-28T21:22:57.499Z,100728.68
2023-04-28T21:25:27.235Z,100730.64
2023-04-28T21:27:56.048Z,100729.81
2023-04-28T21:30:24.535Z,100729.96
2023-04-28T21:32:55.021Z,100730.10
2023-04-28T21:35:33.472Z,100728.23
2023-04-28T21:38:03.164Z,100725.99
2023-04-28T21:40:32.920Z,100728.55
2023-04-28T21:43:01.600Z,100726.65
2023-04-28T21:45:30.951Z,100727.83
2023-04-28T21:48:00.224Z,100724.34
2023-04-28T21:50:29.486Z,100726.20
2023-04-28T21:53:00.337Z,100727.61
2023-04-28T21:55:29.050Z,100725.36
2023-04-28T21:58:00.107Z,100725.07
2023-04-28T22:00:29.868Z,100719.94
2023-04-28T22:02:58.900Z,100723.72
2023-04-28T22:05:28.800Z,100720.37
2023-04-28T22:07:57.504Z,100719.15
2023-04-28T22:10:26.025Z,100716.94
2023-04-28T22:12:54.875Z,100718.85
2023-04-28T22:15:23.750Z,100720.08
2023-04-28T22:17:52.285Z,100716.45
2023-04-28T22:20:20.909Z,100717.35
2023-04-28T22:23:01.187Z,100719.72
2023-04-28T22:25:33.266Z,100717.57
2023-04-28T22:28:02.385Z,100719.60
2023-04-28T22:30:31.961Z,100719.75
2023-04-28T22:33:00.747Z,100720.29
2023-04-28T22:35:29.575Z,100719.83
2023-04-28T22:37:58.297Z,100718.08
2023-04-28T22:40:27.012Z,100717.47
2023-04-28T22:42:55.398Z,100715.58
2023-04-28T22:45:24.232Z,100716.66
2023-04-28T22:47:53.163Z,100717.58
2023-04-28T22:50:21.945Z,100713.84
2023-04-28T22:52:50.962Z,100711.60
2023-04-28T22:55:20.057Z,100708.55
2023-04-28T22:57:48.473Z,100706.64
2023-04-28T23:00:17.370Z,100705.83
2023-04-28T23:02:46.226Z,100706.93
2023-04-28T23:05:14.953Z,100704.88
2023-04-28T23:07:43.827Z,100705.66
2023-04-28T23:10:15.492Z,100702.25
2023-04-28T23:12:44.491Z,100701.74
2023-04-28T23:15:13.243Z,100699.71
2023-04-28T23:17:43.399Z,100698.66
2023-04-28T23:20:13.490Z,100694.83
2023-04-28T23:22:42.011Z,100695.04
2023-04-28T23:25:11.853Z,100693.92
2023-04-28T23:27:40.390Z,100693.34
2023-04-28T23:30:11.422Z,100689.98
2023-04-28T23:32:40.143Z,100691.26
2023-04-28T23:35:09.797Z,100689.84
2023-04-28T23:37:42.367Z,100686.31
2023-04-28T23:40:12.676Z,100687.06
2023-04-28T23:42:41.120Z,100680.79
2023-04-28T23:45:11.374Z,100682.68
2023-04-28T23:47:41.119Z,100678.91
2023-04-28T23:50:10.939Z,100675.15
2023-04-28T23:52:41.185Z,100670.18
2023-04-28T23:55:12.346Z,100669.70
2023-04-28T23:57:41.694Z,100669.86
